createdAt,value
2023-02-24T00:04:56.221Z,8.52
2023-02-24T00:10:01.522Z,8.75
2023-02-24T00:15:05.781Z,8.88
2023-02-24T00:20:10.559Z,8.73
2023-02-24T00:25:15.908Z,8.84
2023-02-24T00:30:19.889Z,9.03
2023-02-24T00:35:23.498Z,9.15
2023-02-24T00:40:29.472Z,9.10
2023-02-24T00:45:36.068Z,9.04
2023-02-24T00:50:40.334Z,8.97
2023-02-24T00:55:45.723Z,8.85
2023-02-24T01:00:49.353Z,8.69
2023-02-24T01:05:53.359Z,8.77
2023-02-24T01:11:00.460Z,8.55
2023-02-24T01:16:04.191Z,8.42
2023-02-24T01:21:08.040Z,8.49
2023-02-24T01:26:13.507Z,8.51
2023-02-24T01:31:18.113Z,8.47
2023-02-24T01:36:25.338Z,8.50
2023-02-24T01:41:30.669Z,8.41
2023-02-24T01:46:35.761Z,8.25
2023-02-24T01:51:44.901Z,8.03
2023-02-24T01:56:51.912Z,7.93
2023-02-24T02:02:01.866Z,8.11
2023-02-24T02:07:06.492Z,8.01
2023-02-24T02:12:12.319Z,8.35
2023-02-24T02:17:21.429Z,8.21
2023-02-24T02:22:55.818Z,8.27
2023-02-24T02:28:26.656Z,8.34
2023-02-24T02:33:54.378Z,8.32
2023-02-24T02:39:06.993Z,8.43
2023-02-24T02:44:15.237Z,8.51
2023-02-24T02:49:25.678Z,8.37
2023-02-24T02:54:34.297Z,8.40
2023-02-24T02:59:43.686Z,8.37
2023-02-24T03:04:52.427Z,8.41
2023-02-24T03:10:00.892Z,8.41
2023-02-24T03:15:08.778Z,8.34
2023-02-24T03:20:20.795Z,8.23
2023-02-24T03:25:28.487Z,8.30
2023-02-24T03:30:40.264Z,8.03
2023-02-24T03:35:46.740Z,7.86
2023-02-24T03:40:49.593Z,7.88
2023-02-24T03:45:53.670Z,7.56
2023-02-24T03:51:00.001Z,7.80
2023-02-24T03:56:16.798Z,7.72
2023-02-24T04:01:27.699Z,7.67
2023-02-24T04:06:43.463Z,7.53
2023-02-24T04:11:54.655Z,7.62
2023-02-24T04:17:03.438Z,7.52
2023-02-24T04:22:16.226Z,7.77
2023-02-24T04:27:20.796Z,7.63
2023-02-24T04:32:28.782Z,7.78
2023-02-24T04:37:34.381Z,7.90
2023-02-24T04:42:38.076Z,7.97
2023-02-24T04:47:41.692Z,7.97
2023-02-24T04:52:48.896Z,7.89
2023-02-24T04:57:54.422Z,7.84
2023-02-24T05:02:58.469Z,7.79
2023-02-24T05:08:05.924Z,7.44
2023-02-24T05:13:10.009Z,7.45
2023-02-24T05:18:15.431Z,7.39
2023-02-24T05:23:20.948Z,7.33
2023-02-24T05:28:24.776Z,7.23
2023-02-24T05:33:28.380Z,7.11
2023-02-24T05:38:33.947Z,6.65
2023-02-24T05:43:37.590Z,6.50
2023-02-24T05:48:41.201Z,6.46
2023-02-24T05:53:46.472Z,6.26
2023-02-24T05:58:50.413Z,6.54
2023-02-24T06:03:58.966Z,6.68
2023-02-24T06:09:05.016Z,6.63
2023-02-24T06:14:09.713Z,6.24
2023-02-24T06:19:13.877Z,6.32
2023-02-24T06:24:19.178Z,6.48
2023-02-24T06:29:22.789Z,6.45
2023-02-24T06:34:26.984Z,6.46
2023-02-24T06:39:34.391Z,6.43
2023-02-24T06:44:41.324Z,6.10
2023-02-24T06:49:45.057Z,6.17
2023-02-24T06:54:51.036Z,6.30
2023-02-24T06:59:54.622Z,6.26
2023-02-24T07:04:58.234Z,6.26
2023-02-24T07:10:03.533Z,6.03
2023-02-24T07:15:08.583Z,6.03
2023-02-24T07:20:13.499Z,5.95
2023-02-24T07:25:19.243Z,6.10
2023-02-24T07:30:22.893Z,5.96
2023-02-24T07:35:26.616Z,6.12
2023-02-24T07:40:33.028Z,5.98
2023-02-24T07:45:35.953Z,5.99
2023-02-24T07:50:41.631Z,6.14
2023-02-24T07:55:46.923Z,6.31
2023-02-24T08:00:50.736Z,6.44
2023-02-24T08:05:57.295Z,6.10
2023-02-24T08:11:02.672Z,5.94
2023-02-24T08:16:07.613Z,5.73
2023-02-24T08:21:11.340Z,5.76
2023-02-24T08:26:16.653Z,5.59
2023-02-24T08:31:20.646Z,5.64
2023-02-24T08:36:24.629Z,5.69
2023-02-24T08:41:29.934Z,5.71
2023-02-24T08:46:33.622Z,5.88
2023-02-24T08:51:38.305Z,5.91
2023-02-24T08:56:44.371Z,6.26
2023-02-24T09:01:53.354Z,6.26
2023-02-24T09:07:11.768Z,6.30
2023-02-24T09:12:17.655Z,6.54
2023-02-24T09:17:21.283Z,6.65
2023-02-24T09:22:26.025Z,6.68
2023-02-24T09:27:31.302Z,6.68
2023-02-24T09:32:35.149Z,6.70
2023-02-24T09:37:38.897Z,6.58
2023-02-24T09:42:44.254Z,6.61
2023-02-24T09:47:49.449Z,6.46
2023-02-24T09:53:00.080Z,6.46
2023-02-24T09:58:18.228Z,6.41
2023-02-24T10:03:26.244Z,6.51
2023-02-24T10:08:36.398Z,6.49
2023-02-24T10:13:48.386Z,6.43
2023-02-24T10:18:54.921Z,6.24
2023-02-24T10:24:04.906Z,6.26
2023-02-24T10:29:19.298Z,6.33
2023-02-24T10:34:24.078Z,6.48
2023-02-24T10:39:28.201Z,6.46
2023-02-24T10:44:33.517Z,6.51
2023-02-24T10:49:42.122Z,6.54
2023-02-24T10:54:46.605Z,6.39
2023-02-24T10:59:54.981Z,6.32
2023-02-24T11:05:02.540Z,6.21
2023-02-24T11:10:12.280Z,6.07
2023-02-24T11:15:22.801Z,6.14
2023-02-24T11:20:46.492Z,6.16
2023-02-24T11:25:55.016Z,6.08
2023-02-24T11:31:11.512Z,6.18
2023-02-24T11:36:23.336Z,6.26
2023-02-24T11:41:31.231Z,6.25
2023-02-24T11:46:43.440Z,6.24
2023-02-24T11:51:47.324Z,6.24
2023-02-24T11:56:55.379Z,6.25
2023-02-24T12:02:06.935Z,6.25
2023-02-24T12:07:19.820Z,6.28
2023-02-24T12:12:27.394Z,6.33
2023-02-24T12:17:37.544Z,6.24
2023-02-24T12:22:47.773Z,5.91
2023-02-24T12:28:03.345Z,5.86
2023-02-24T12:33:31.135Z,5.90
2023-02-24T12:38:45.792Z,5.87
2023-02-24T12:43:56.147Z,5.85
2023-02-24T12:49:33.476Z,5.88
2023-02-24T12:54:44.749Z,5.70
2023-02-24T12:59:49.697Z,5.57
2023-02-24T13:05:05.189Z,5.76
2023-02-24T13:10:19.642Z,5.88
2023-02-24T13:15:24.995Z,5.88
2023-02-24T13:20:33.276Z,5.91
2023-02-24T13:25:38.275Z,5.94
2023-02-24T13:30:44.932Z,5.87
2023-02-24T13:35:51.067Z,5.82
2023-02-24T13:40:55.064Z,5.83
2023-02-24T13:46:01.252Z,5.88
2023-02-24T13:51:30.914Z,5.88
2023-02-24T13:56:43.705Z,5.96
2023-02-24T14:01:50.495Z,6.00
2023-02-24T14:06:59.204Z,5.83
2023-02-24T14:12:06.301Z,5.79
2023-02-24T14:17:21.672Z,5.82
2023-02-24T14:22:26.970Z,5.84
2023-02-24T14:27:31.012Z,5.80
2023-02-24T14:32:35.669Z,5.55
2023-02-24T14:37:41.038Z,5.29
2023-02-24T14:42:49.192Z,5.37
2023-02-24T14:47:52.931Z,5.36
2023-02-24T14:53:02.932Z,5.40
2023-02-24T14:58:13.133Z,5.44
2023-02-24T15:03:19.832Z,5.45
2023-02-24T15:08:34.729Z,5.45
2023-02-24T15:13:41.749Z,5.55
2023-02-24T15:18:50.181Z,5.49
2023-02-24T15:24:02.965Z,5.46
2023-02-24T15:29:15.557Z,5.39
2023-02-24T15:34:21.561Z,5.39
2023-02-24T15:39:29.801Z,5.54
2023-02-24T15:44:35.827Z,5.61
2023-02-24T15:49:39.430Z,5.69
2023-02-24T15:54:44.747Z,5.66
2023-02-24T15:59:48.849Z,5.69
2023-02-24T16:04:53.008Z,5.87
2023-02-24T16:09:59.901Z,5.92
2023-02-24T16:15:06.548Z,6.12
2023-02-24T16:20:14.723Z,6.25
2023-02-24T16:25:20.964Z,6.46
2023-02-24T16:30:26.801Z,6.47
2023-02-24T16:35:30.521Z,6.38
2023-02-24T16:40:36.985Z,6.35
2023-02-24T16:45:40.267Z,6.36
2023-02-24T16:50:45.401Z,6.39
2023-02-24T16:55:51.416Z,6.56
2023-02-24T17:00:57.756Z,6.62
2023-02-24T17:06:01.415Z,6.61
2023-02-24T17:11:06.988Z,6.64
2023-02-24T17:16:10.881Z,6.77
2023-02-24T17:21:16.058Z,7.40
2023-02-24T17:26:21.628Z,8.03
2023-02-24T17:31:25.535Z,8.34
2023-02-24T17:36:30.076Z,8.26
2023-02-24T17:41:35.416Z,8.13
2023-02-24T17:46:39.939Z,8.37
2023-02-24T17:51:43.733Z,8.50
2023-02-24T17:56:49.015Z,8.48
2023-02-24T18:01:52.772Z,8.45
2023-02-24T18:06:56.516Z,8.25
2023-02-24T18:12:02.073Z,8.22
2023-02-24T18:17:05.685Z,7.84
2023-02-24T18:22:09.789Z,7.76
2023-02-24T18:27:15.146Z,7.67
2023-02-24T18:32:19.219Z,7.83
2023-02-24T18:37:23.184Z,7.86
2023-02-24T18:42:28.480Z,8.29
2023-02-24T18:47:32.160Z,8.57
2023-02-24T18:52:36.000Z,9.05
2023-02-24T18:57:42.282Z,8.90
2023-02-24T19:02:46.251Z,8.94
2023-02-24T19:07:49.986Z,8.88
2023-02-24T19:12:55.342Z,9.05
2023-02-24T19:17:59.068Z,8.93
2023-02-24T19:23:02.834Z,8.98
2023-02-24T19:28:08.164Z,9.09
2023-02-24T19:33:11.962Z,9.22
2023-02-24T19:38:16.575Z,9.25
2023-02-24T19:43:21.940Z,9.36
2023-02-24T19:48:25.632Z,9.40
2023-02-24T19:53:29.834Z,9.45
2023-02-24T19:58:35.457Z,9.57
2023-02-24T20:03:40.052Z,9.56
2023-02-24T20:08:43.772Z,9.32
2023-02-24T20:13:51.672Z,9.32
2023-02-24T20:18:56.098Z,9.45
2023-02-24T20:24:00.775Z,9.56
2023-02-24T20:29:06.142Z,9.81
2023-02-24T20:34:10.410Z,10.08
2023-02-24T20:39:14.194Z,10.57
2023-02-24T20:44:19.503Z,10.58
2023-02-24T20:49:23.327Z,10.57
2023-02-24T20:54:27.036Z,10.61
2023-02-24T20:59:32.293Z,11.00
2023-02-24T21:04:36.028Z,11.14
2023-02-24T21:09:39.759Z,11.54
2023-02-24T21:14:45.365Z,11.61
2023-02-24T21:19:49.046Z,11.93
2023-02-24T21:24:52.657Z,12.14
2023-02-24T21:29:57.942Z,12.09
2023-02-24T21:35:01.720Z,12.16
2023-02-24T21:40:06.482Z,11.68
2023-02-24T21:45:12.475Z,11.76
2023-02-24T21:50:16.430Z,11.95
2023-02-24T21:55:20.210Z,11.60
2023-02-24T22:00:25.697Z,11.22
2023-02-24T22:05:29.328Z,11.24
2023-02-24T22:10:32.949Z,10.99
2023-02-24T22:15:39.694Z,11.18
2023-02-24T22:20:43.385Z,11.33
2023-02-24T22:25:47.065Z,11.27
2023-02-24T22:30:58.032Z,11.14
2023-02-24T22:36:04.083Z,11.07
2023-02-24T22:41:12.027Z,11.27
2023-02-24T22:46:19.854Z,11.16
2023-02-24T22:51:24.348Z,11.29
2023-02-24T22:56:29.292Z,11.38
2023-02-24T23:01:37.045Z,11.19
2023-02-24T23:06:40.733Z,11.16
2023-02-24T23:11:44.555Z,11.06
2023-02-24T23:16:53.646Z,11.12
2023-02-24T23:21:57.358Z,11.25
2023-02-24T23:27:01.645Z,11.02
2023-02-24T23:32:07.113Z,10.77
2023-02-24T23:37:10.902Z,10.75
2023-02-24T23:42:14.499Z,10.55
2023-02-24T23:47:19.781Z,10.72
2023-02-24T23:52:23.485Z,10.70
2023-02-24T23:57:29.205Z,10.48
